sensor_id;sensor_type;location;lat;lon;timestamp;pressure;altitude;pressure_sealevel;temperature;humidity
10948;BME280;5526;42.070;24.752;2023-06-05T00:00:26;99430.28;;;17.53;100.00
10948;BME280;5526;42.070;24.752;2023-06-05T00:02:53;99435.19;;;17.46;100.00
10948;BME280;5526;42.070;24.752;2023-06-05T00:05:22;99435.38;;;17.50;100.00
10948;BME280;5526;42.070;24.752;2023-06-05T00:07:51;99420.59;;;17.39;100.00
10948;BME280;5526;42.070;24.752;2023-06-05T00:10:19;99429.06;;;17.46;100.00
10948;BME280;5526;42.070;24.752;2023-06-05T00:12:46;99421.97;;;17.36;100.00
10948;BME280;5526;42.070;24.752;2023-06-05T00:15:13;99422.69;;;17.23;100.00
10948;BME280;5526;42.070;24.752;2023-06-05T00:17:40;99431.88;;;17.12;100.00
10948;BME280;5526;42.070;24.752;2023-06-05T00:20:07;99428.47;;;17.07;100.00
10948;BME280;5526;42.070;24.752;2023-06-05T00:22:36;99424.50;;;17.04;100.00
10948;BME280;5526;42.070;24.752;2023-06-05T00:25:05;99426.38;;;17.03;100.00
10948;BME280;5526;42.070;24.752;2023-06-05T00:27:32;99425.34;;;16.99;100.00
10948;BME280;5526;42.070;24.752;2023-06-05T00:29:59;99425.34;;;16.99;100.00
10948;BME280;5526;42.070;24.752;2023-06-05T00:32:26;99424.00;;;17.02;100.00
10948;BME280;5526;42.070;24.752;2023-06-05T00:34:53;99417.66;;;16.98;100.00
10948;BME280;5526;42.070;24.752;2023-06-05T00:37:20;99426.22;;;16.95;100.00
10948;BME280;5526;42.070;24.752;2023-06-05T00:39:49;99417.44;;;16.94;100.00
10948;BME280;5526;42.070;24.752;2023-06-05T00:42:16;99429.00;;;16.85;100.00
10948;BME280;5526;42.070;24.752;2023-06-05T00:44:43;99414.75;;;16.76;100.00
10948;BME280;5526;42.070;24.752;2023-06-05T00:47:10;99422.09;;;16.84;100.00
10948;BME280;5526;42.070;24.752;2023-06-05T00:49:37;99420.22;;;16.84;100.00
10948;BME280;5526;42.070;24.752;2023-06-05T00:52:05;99417.53;;;16.89;100.00
10948;BME280;5526;42.070;24.752;2023-06-05T00:54:33;99414.63;;;16.86;100.00
10948;BME280;5526;42.070;24.752;2023-06-05T00:57:02;99417.56;;;16.84;100.00
10948;BME280;5526;42.070;24.752;2023-06-05T00:59:29;99413.94;;;16.75;100.00
10948;BME280;5526;42.070;24.752;2023-06-05T01:02:00;99413.19;;;16.75;100.00
10948;BME280;5526;42.070;24.752;2023-06-05T01:04:27;99421.97;;;16.70;100.00
10948;BME280;5526;42.070;24.752;2023-06-05T01:06:55;99421.97;;;16.70;100.00
10948;BME280;5526;42.070;24.752;2023-06-05T01:09:23;99427.69;;;16.82;100.00
10948;BME280;5526;42.070;24.752;2023-06-05T01:11:53;99415.50;;;16.81;100.00
10948;BME280;5526;42.070;24.752;2023-06-05T01:14:27;99415.41;;;16.86;100.00
10948;BME280;5526;42.070;24.752;2023-06-05T01:16:57;99416.50;;;16.85;100.00
10948;BME280;5526;42.070;24.752;2023-06-05T01:19:26;99408.81;;;16.84;100.00
10948;BME280;5526;42.070;24.752;2023-06-05T01:21:54;99415.50;;;16.81;100.00
10948;BME280;5526;42.070;24.752;2023-06-05T01:24:23;99407.44;;;16.86;100.00
10948;BME280;5526;42.070;24.752;2023-06-05T01:26:59;99412.97;;;16.90;100.00
10948;BME280;5526;42.070;24.752;2023-06-05T01:29:33;99409.25;;;16.91;100.00
10948;BME280;5526;42.070;24.752;2023-06-05T01:32:05;99420.75;;;16.86;100.00
10948;BME280;5526;42.070;24.752;2023-06-05T01:34:37;99424.22;;;16.82;100.00
10948;BME280;5526;42.070;24.752;2023-06-05T01:37:10;99423.41;;;16.86;100.00
10948;BME280;5526;42.070;24.752;2023-06-05T01:39:42;99420.66;;;16.91;100.00
10948;BME280;5526;42.070;24.752;2023-06-05T01:42:10;99420.09;;;16.94;100.00
10948;BME280;5526;42.070;24.752;2023-06-05T01:44:38;99434.09;;;16.81;100.00
10948;BME280;5526;42.070;24.752;2023-06-05T01:47:07;99432.56;;;16.75;100.00
10948;BME280;5526;42.070;24.752;2023-06-05T01:49:34;99430.56;;;16.62;100.00
10948;BME280;5526;42.070;24.752;2023-06-05T01:52:01;99437.00;;;16.56;100.00
10948;BME280;5526;42.070;24.752;2023-06-05T01:54:28;99434.41;;;16.51;100.00
10948;BME280;5526;42.070;24.752;2023-06-05T01:57:00;99442.72;;;16.40;100.00
10948;BME280;5526;42.070;24.752;2023-06-05T01:59:29;99451.47;;;16.40;100.00
10948;BME280;5526;42.070;24.752;2023-06-05T02:01:57;99445.63;;;16.43;100.00
10948;BME280;5526;42.070;24.752;2023-06-05T02:04:24;99436.38;;;16.41;100.00
10948;BME280;5526;42.070;24.752;2023-06-05T02:06:53;99447.75;;;16.46;100.00
10948;BME280;5526;42.070;24.752;2023-06-05T02:09:20;99448.81;;;16.45;100.00
10948;BME280;5526;42.070;24.752;2023-06-05T02:11:47;99452.81;;;16.43;100.00
10948;BME280;5526;42.070;24.752;2023-06-05T02:14:15;99456.84;;;16.35;100.00
10948;BME280;5526;42.070;24.752;2023-06-05T02:16:42;99454.25;;;16.30;100.00
10948;BME280;5526;42.070;24.752;2023-06-05T02:19:09;99460.97;;;16.18;100.00
10948;BME280;5526;42.070;24.752;2023-06-05T02:21:36;99454.47;;;16.00;100.00
10948;BME280;5526;42.070;24.752;2023-06-05T02:24:03;99461.09;;;16.03;100.00
10948;BME280;5526;42.070;24.752;2023-06-05T02:26:32;99462.66;;;16.04;100.00
10948;BME280;5526;42.070;24.752;2023-06-05T02:28:59;99464.00;;;16.06;100.00
10948;BME280;5526;42.070;24.752;2023-06-05T02:31:28;99466.75;;;15.91;100.00
10948;BME280;5526;42.070;24.752;2023-06-05T02:33:56;99461.94;;;15.93;100.00
10948;BME280;5526;42.070;24.752;2023-06-05T02:36:23;99467.19;;;16.03;100.00
10948;BME280;5526;42.070;24.752;2023-06-05T02:38:51;99460.31;;;16.02;100.00
10948;BME280;5526;42.070;24.752;2023-06-05T02:41:18;99459.72;;;16.10;100.00
10948;BME280;5526;42.070;24.752;2023-06-05T02:43:47;99454.63;;;16.14;100.00
10948;BME280;5526;42.070;24.752;2023-06-05T02:46:14;99462.00;;;16.22;100.00
10948;BME280;5526;42.070;24.752;2023-06-05T02:48:42;99459.34;;;16.22;100.00
10948;BME280;5526;42.070;24.752;2023-06-05T02:51:09;99449.75;;;16.26;100.00
10948;BME280;5526;42.070;24.752;2023-06-05T02:53:36;99441.72;;;16.31;100.00
10948;BME280;5526;42.070;24.752;2023-06-05T02:56:03;99450.41;;;16.46;100.00
10948;BME280;5526;42.070;24.752;2023-06-05T02:58:31;99459.16;;;16.47;100.00
10948;BME280;5526;42.070;24.752;2023-06-05T03:00:59;99451.19;;;16.47;100.00
10948;BME280;5526;42.070;24.752;2023-06-05T03:03:29;99456.22;;;16.48;100.00
10948;BME280;5526;42.070;24.752;2023-06-05T03:05:58;99455.38;;;16.53;100.00
10948;BME280;5526;42.070;24.752;2023-06-05T03:08:30;99452.81;;;16.43;100.00
10948;BME280;5526;42.070;24.752;2023-06-05T03:10:58;99457.91;;;16.68;100.00
10948;BME280;5526;42.070;24.752;2023-06-05T03:13:25;99458.16;;;16.90;100.00
10948;BME280;5526;42.070;24.752;2023-06-05T03:15:52;99457.66;;;17.12;100.00
10948;BME280;5526;42.070;24.752;2023-06-05T03:18:23;99451.69;;;17.20;100.00
10948;BME280;5526;42.070;24.752;2023-06-05T03:20:51;99460.50;;;17.44;100.00
10948;BME280;5526;42.070;24.752;2023-06-05T03:23:22;99457.13;;;17.57;100.00
10948;BME280;5526;42.070;24.752;2023-06-05T03:25:50;99453.81;;;17.65;100.00
10948;BME280;5526;42.070;24.752;2023-06-05T03:28:17;99448.34;;;17.75;100.00
10948;BME280;5526;42.070;24.752;2023-06-05T03:30:44;99448.09;;;17.90;100.00
10948;BME280;5526;42.070;24.752;2023-06-05T03:33:12;99452.13;;;17.87;100.00
10948;BME280;5526;42.070;24.752;2023-06-05T03:35:40;99453.03;;;17.83;100.00
10948;BME280;5526;42.070;24.752;2023-06-05T03:38:08;99446.66;;;17.97;100.00
10948;BME280;5526;42.070;24.752;2023-06-05T03:40:36;99421.31;;;18.00;100.00
10948;BME280;5526;42.070;24.752;2023-06-05T03:43:05;99433.63;;;17.96;100.00
10948;BME280;5526;42.070;24.752;2023-06-05T03:45:32;99437.88;;;17.97;100.00
10948;BME280;5526;42.070;24.752;2023-06-05T03:47:59;99442.53;;;18.05;100.00
10948;BME280;5526;42.070;24.752;2023-06-05T03:50:27;99442.16;;;18.11;100.00
10948;BME280;5526;42.070;24.752;2023-06-05T03:52:55;99436.25;;;18.14;100.00
10948;BME280;5526;42.070;24.752;2023-06-05T03:55:29;99438.63;;;18.16;100.00
10948;BME280;5526;42.070;24.752;2023-06-05T03:58:11;99438.13;;;18.14;100.00
10948;BME280;5526;42.070;24.752;2023-06-05T04:00:40;99427.34;;;18.05;100.00
10948;BME280;5526;42.070;24.752;2023-06-05T04:03:08;99432.19;;;18.03;100.00
10948;BME280;5526;42.070;24.752;2023-06-05T04:05:36;99434.94;;;17.98;100.00
10948;BME280;5526;42.070;24.752;2023-06-05T04:08:04;99440.53;;;17.97;100.00
10948;BME280;5526;42.070;24.752;2023-06-05T04:10:31;99431.78;;;17.96;100.00
10948;BME280;5526;42.070;24.752;2023-06-05T04:12:58;99441.38;;;18.11;100.00
10948;BME280;5526;42.070;24.752;2023-06-05T04:15:27;99443.38;;;18.19;100.00
10948;BME280;5526;42.070;24.752;2023-06-05T04:17:55;99441.09;;;18.12;100.00
10948;BME280;5526;42.070;24.752;2023-06-05T04:20:22;99441.72;;;18.23;100.00
10948;BME280;5526;42.070;24.752;2023-06-05T04:22:49;99441.00;;;18.36;100.00
10948;BME280;5526;42.070;24.752;2023-06-05T04:25:17;99440.06;;;18.27;100.00
10948;BME280;5526;42.070;24.752;2023-06-05T04:27:46;99440.88;;;18.41;100.00
10948;BME280;5526;42.070;24.752;2023-06-05T04:30:14;99438.94;;;18.46;100.00
10948;BME280;5526;42.070;24.752;2023-06-05T04:32:42;99442.59;;;18.50;100.00
10948;BME280;5526;42.070;24.752;2023-06-05T04:35:18;99439.63;;;18.52;100.00
10948;BME280;5526;42.070;24.752;2023-06-05T04:37:46;99445.09;;;18.60;100.00
10948;BME280;5526;42.070;24.752;2023-06-05T04:40:13;99452.59;;;18.72;100.00
10948;BME280;5526;42.070;24.752;2023-06-05T04:42:41;99458.63;;;18.91;100.00
10948;BME280;5526;42.070;24.752;2023-06-05T04:45:08;99459.91;;;19.07;100.00
10948;BME280;5526;42.070;24.752;2023-06-05T04:47:36;99455.69;;;18.92;100.00
10948;BME280;5526;42.070;24.752;2023-06-05T04:50:05;99464.66;;;19.10;100.00
10948;BME280;5526;42.070;24.752;2023-06-05T04:52:34;99468.22;;;19.19;100.00
10948;BME280;5526;42.070;24.752;2023-06-05T04:55:06;99456.84;;;19.40;100.00
10948;BME280;5526;42.070;24.752;2023-06-05T04:57:33;99471.34;;;19.61;100.00
10948;BME280;5526;42.070;24.752;2023-06-05T05:00:00;99473.13;;;19.52;100.00
10948;BME280;5526;42.070;24.752;2023-06-05T05:02:30;99466.25;;;19.38;100.00
10948;BME280;5526;42.070;24.752;2023-06-05T05:04:57;99484.94;;;19.38;100.00
10948;BME280;5526;42.070;24.752;2023-06-05T05:07:25;99474.34;;;19.19;100.00
10948;BME280;5526;42.070;24.752;2023-06-05T05:09:54;99483.63;;;19.22;100.00
10948;BME280;5526;42.070;24.752;2023-06-05T05:12:21;99482.75;;;19.13;100.00
10948;BME280;5526;42.070;24.752;2023-06-05T05:14:48;99479.41;;;19.07;100.00
10948;BME280;5526;42.070;24.752;2023-06-05T05:17:15;99485.22;;;19.09;100.00
10948;BME280;5526;42.070;24.752;2023-06-05T05:19:45;99479.69;;;19.06;100.00
10948;BME280;5526;42.070;24.752;2023-06-05T05:22:12;99483.63;;;18.81;100.00
10948;BME280;5526;42.070;24.752;2023-06-05T05:24:40;99478.88;;;18.92;100.00
10948;BME280;5526;42.070;24.752;2023-06-05T05:27:07;99486.53;;;18.98;100.00
10948;BME280;5526;42.070;24.752;2023-06-05T05:29:35;99494.88;;;18.92;100.00
10948;BME280;5526;42.070;24.752;2023-06-05T05:32:02;99497.50;;;19.24;100.00
10948;BME280;5526;42.070;24.752;2023-06-05T05:34:29;99502.00;;;18.96;100.00
10948;BME280;5526;42.070;24.752;2023-06-05T05:36:56;99500.59;;;18.72;100.00
10948;BME280;5526;42.070;24.752;2023-06-05T05:39:23;99514.53;;;18.69;100.00
10948;BME280;5526;42.070;24.752;2023-06-05T05:41:52;99515.22;;;18.88;100.00
10948;BME280;5526;42.070;24.752;2023-06-05T05:44:19;99512.47;;;18.79;100.00
10948;BME280;5526;42.070;24.752;2023-06-05T05:46:46;99510.13;;;18.91;100.00
10948;BME280;5526;42.070;24.752;2023-06-05T05:49:13;99513.06;;;18.90;100.00
10948;BME280;5526;42.070;24.752;2023-06-05T05:51:40;99515.94;;;19.07;100.00
10948;BME280;5526;42.070;24.752;2023-06-05T05:54:07;99513.38;;;19.02;100.00
10948;BME280;5526;42.070;24.752;2023-06-05T05:56:34;99518.56;;;18.80;100.00
10948;BME280;5526;42.070;24.752;2023-06-05T05:59:03;99521.75;;;18.82;100.00
10948;BME280;5526;42.070;24.752;2023-06-05T06:01:31;99518.78;;;18.70;100.00
10948;BME280;5526;42.070;24.752;2023-06-05T06:03:58;99520.88;;;18.73;100.00
10948;BME280;5526;42.070;24.752;2023-06-05T06:06:25;99516.94;;;18.33;100.00
10948;BME280;5526;42.070;24.752;2023-06-05T06:08:52;99509.41;;;18.40;100.00
10948;BME280;5526;42.070;24.752;2023-06-05T06:11:19;99516.81;;;18.25;100.00
10948;BME280;5526;42.070;24.752;2023-06-05T06:13:46;99506.59;;;18.32;100.00
10948;BME280;5526;42.070;24.752;2023-06-05T06:16:14;99515.84;;;18.53;100.00
10948;BME280;5526;42.070;24.752;2023-06-05T06:18:41;99510.75;;;18.56;100.00
10948;BME280;5526;42.070;24.752;2023-06-05T06:21:09;99514.22;;;18.70;100.00
10948;BME280;5526;42.070;24.752;2023-06-05T06:23:36;99513.94;;;18.72;100.00
10948;BME280;5526;42.070;24.752;2023-06-05T06:26:03;99508.72;;;18.94;100.00
10948;BME280;5526;42.070;24.752;2023-06-05T06:28:32;99503.13;;;19.09;100.00
10948;BME280;5526;42.070;24.752;2023-06-05T06:30:59;99508.56;;;19.04;100.00
10948;BME280;5526;42.070;24.752;2023-06-05T06:33:27;99494.59;;;18.93;100.00
10948;BME280;5526;42.070;24.752;2023-06-05T06:35:54;99500.03;;;18.88;100.00
10948;BME280;5526;42.070;24.752;2023-06-05T06:38:24;99498.47;;;18.87;100.00
10948;BME280;5526;42.070;24.752;2023-06-05T06:40:55;99500.75;;;19.21;100.00
10948;BME280;5526;42.070;24.752;2023-06-05T06:43:23;99505.28;;;19.20;100.00
10948;BME280;5526;42.070;24.752;2023-06-05T06:45:51;99505.53;;;19.37;100.00
10948;BME280;5526;42.070;24.752;2023-06-05T06:48:18;99510.72;;;19.15;100.00
10948;BME280;5526;42.070;24.752;2023-06-05T06:50:47;99505.38;;;19.02;100.00
10948;BME280;5526;42.070;24.752;2023-06-05T06:53:14;99501.31;;;19.18;100.00
10948;BME280;5526;42.070;24.752;2023-06-05T06:55:41;99503.72;;;19.33;100.00
10948;BME280;5526;42.070;24.752;2023-06-05T06:58:08;99502.31;;;19.22;100.00
10948;BME280;5526;42.070;24.752;2023-06-05T07:00:35;99512.63;;;19.28;100.00
10948;BME280;5526;42.070;24.752;2023-06-05T07:03:03;99503.81;;;19.14;100.00
10948;BME280;5526;42.070;24.752;2023-06-05T07:05:31;99504.69;;;19.50;100.00
10948;BME280;5526;42.070;24.752;2023-06-05T07:07:59;99506.81;;;19.75;100.00
10948;BME280;5526;42.070;24.752;2023-06-05T07:10:27;99503.66;;;20.09;100.00
10948;BME280;5526;42.070;24.752;2023-06-05T07:12:55;99499.66;;;19.98;100.00
10948;BME280;5526;42.070;24.752;2023-06-05T07:15:22;99500.19;;;20.22;100.00
10948;BME280;5526;42.070;24.752;2023-06-05T07:17:50;99501.25;;;20.21;100.00
10948;BME280;5526;42.070;24.752;2023-06-05T07:20:17;99507.56;;;20.25;100.00
10948;BME280;5526;42.070;24.752;2023-06-05T07:22:44;99504.84;;;20.16;100.00
10948;BME280;5526;42.070;24.752;2023-06-05T07:25:13;99509.13;;;20.39;100.00
10948;BME280;5526;42.070;24.752;2023-06-05T07:27:43;99513.09;;;21.03;100.00
10948;BME280;5526;42.070;24.752;2023-06-05T07:30:11;99505.81;;;20.95;100.00
10948;BME280;5526;42.070;24.752;2023-06-05T07:32:39;99509.84;;;20.84;100.00
10948;BME280;5526;42.070;24.752;2023-06-05T07:35:09;99514.31;;;22.09;100.00
10948;BME280;5526;42.070;24.752;2023-06-05T07:37:36;99510.13;;;21.69;100.00
10948;BME280;5526;42.070;24.752;2023-06-05T07:40:03;99512.44;;;21.45;100.00
10948;BME280;5526;42.070;24.752;2023-06-05T07:42:32;99511.56;;;21.58;100.00
10948;BME280;5526;42.070;24.752;2023-06-05T07:45:00;99514.59;;;21.82;100.00
10948;BME280;5526;42.070;24.752;2023-06-05T07:47:27;99517.22;;;21.65;100.00
10948;BME280;5526;42.070;24.752;2023-06-05T07:49:57;99516.34;;;22.21;100.00
10948;BME280;5526;42.070;24.752;2023-06-05T07:52:25;99517.91;;;22.30;100.00
10948;BME280;5526;42.070;24.752;2023-06-05T07:54:52;99513.72;;;22.75;100.00
10948;BME280;5526;42.070;24.752;2023-06-05T07:57:20;99519.38;;;22.99;100.00
10948;BME280;5526;42.070;24.752;2023-06-05T07:59:48;99512.69;;;23.05;100.00
10948;BME280;5526;42.070;24.752;2023-06-05T08:02:17;99514.25;;;23.06;100.00
10948;BME280;5526;42.070;24.752;2023-06-05T08:04:44;99506.56;;;22.96;100.00
10948;BME280;5526;42.070;24.752;2023-06-05T08:07:11;99512.47;;;22.81;100.00
10948;BME280;5526;42.070;24.752;2023-06-05T08:09:38;99511.25;;;22.62;100.00
10948;BME280;5526;42.070;24.752;2023-06-05T08:12:05;99502.84;;;22.80;100.00
10948;BME280;5526;42.070;24.752;2023-06-05T08:14:33;99514.38;;;23.18;100.00
10948;BME280;5526;42.070;24.752;2023-06-05T08:17:03;99498.09;;;23.52;98.41
10948;BME280;5526;42.070;24.752;2023-06-05T08:19:31;99496.38;;;23.48;97.67
10948;BME280;5526;42.070;24.752;2023-06-05T08:21:58;99500.09;;;24.25;93.80
10948;BME280;5526;42.070;24.752;2023-06-05T08:24:25;99487.09;;;24.27;92.71
10948;BME280;5526;42.070;24.752;2023-06-05T08:26:54;99486.97;;;24.24;91.86
10948;BME280;5526;42.070;24.752;2023-06-05T08:29:21;99487.94;;;24.40;90.72
10948;BME280;5526;42.070;24.752;2023-06-05T08:31:48;99496.94;;;24.56;89.82
10948;BME280;5526;42.070;24.752;2023-06-05T08:34:17;99486.13;;;24.65;87.80
10948;BME280;5526;42.070;24.752;2023-06-05T08:36:44;99490.53;;;24.93;87.77
10948;BME280;5526;42.070;24.752;2023-06-05T08:39:11;99477.19;;;24.97;88.36
10948;BME280;5526;42.070;24.752;2023-06-05T08:41:39;99491.31;;;25.18;87.47
10948;BME280;5526;42.070;24.752;2023-06-05T08:44:06;99469.91;;;25.45;86.89
10948;BME280;5526;42.070;24.752;2023-06-05T08:46:36;99479.31;;;25.63;87.16
10948;BME280;5526;42.070;24.752;2023-06-05T08:49:08;99472.38;;;25.90;85.22
10948;BME280;5526;42.070;24.752;2023-06-05T08:51:39;99471.84;;;26.12;84.07
10948;BME280;5526;42.070;24.752;2023-06-05T08:54:08;99469.63;;;26.29;82.30
10948;BME280;5526;42.070;24.752;2023-06-05T08:56:38;99464.94;;;26.26;84.03
10948;BME280;5526;42.070;24.752;2023-06-05T08:59:06;99466.94;;;26.29;82.60
10948;BME280;5526;42.070;24.752;2023-06-05T09:01:33;99465.00;;;26.14;82.97
10948;BME280;5526;42.070;24.752;2023-06-05T09:04:01;99455.41;;;25.89;83.74
10948;BME280;5526;42.070;24.752;2023-06-05T09:06:28;99457.75;;;25.91;83.71
10948;BME280;5526;42.070;24.752;2023-06-05T09:09:00;99461.47;;;25.86;82.91
10948;BME280;5526;42.070;24.752;2023-06-05T09:11:29;99453.28;;;25.83;83.41
10948;BME280;5526;42.070;24.752;2023-06-05T09:13:57;99459.59;;;25.75;82.17
10948;BME280;5526;42.070;24.752;2023-06-05T09:16:33;99450.25;;;25.33;82.97
10948;BME280;5526;42.070;24.752;2023-06-05T09:19:02;99449.72;;;25.79;82.53
10948;BME280;5526;42.070;24.752;2023-06-05T09:21:29;99448.44;;;26.16;81.49
10948;BME280;5526;42.070;24.752;2023-06-05T09:24:26;99449.38;;;26.51;80.72
10948;BME280;5526;42.070;24.752;2023-06-05T09:26:56;99448.41;;;26.71;78.32
10948;BME280;5526;42.070;24.752;2023-06-05T09:29:26;99446.47;;;26.87;77.18
10948;BME280;5526;42.070;24.752;2023-06-05T09:31:54;99442.41;;;26.77;78.98
10948;BME280;5526;42.070;24.752;2023-06-05T09:34:23;99433.75;;;26.72;78.26
10948;BME280;5526;42.070;24.752;2023-06-05T09:36:50;99438.97;;;26.96;76.87
10948;BME280;5526;42.070;24.752;2023-06-05T09:39:20;99431.94;;;26.76;77.64
10948;BME280;5526;42.070;24.752;2023-06-05T09:41:52;99428.31;;;27.18;64.30
10948;BME280;5526;42.070;24.752;2023-06-05T09:44:19;99428.78;;;26.89;61.74
10948;BME280;5526;42.070;24.752;2023-06-05T09:46:54;99428.59;;;26.98;62.23
10948;BME280;5526;42.070;24.752;2023-06-05T09:49:24;99422.38;;;27.28;61.25
10948;BME280;5526;42.070;24.752;2023-06-05T09:51:52;99418.38;;;27.57;59.95
10948;BME280;5526;42.070;24.752;2023-06-05T09:54:20;99408.34;;;27.76;59.91
10948;BME280;5526;42.070;24.752;2023-06-05T09:56:49;99409.84;;;27.93;59.49
10948;BME280;5526;42.070;24.752;2023-06-05T09:59:20;99403.97;;;27.72;58.99
10948;BME280;5526;42.070;24.752;2023-06-05T10:01:51;99404.69;;;27.31;57.94
10948;BME280;5526;42.070;24.752;2023-06-05T10:04:20;99404.09;;;27.41;57.94
10948;BME280;5526;42.070;24.752;2023-06-05T10:06:49;99397.81;;;27.18;58.00
10948;BME280;5526;42.070;24.752;2023-06-05T10:09:17;99405.47;;;27.16;56.37
10948;BME280;5526;42.070;24.752;2023-06-05T10:11:48;99391.31;;;26.88;54.78
10948;BME280;5526;42.070;24.752;2023-06-05T10:14:18;99396.84;;;27.45;55.80
10948;BME280;5526;42.070;24.752;2023-06-05T10:16:50;99396.66;;;28.11;55.53
10948;BME280;5526;42.070;24.752;2023-06-05T10:19:18;99379.44;;;27.80;54.29
10948;BME280;5526;42.070;24.752;2023-06-05T10:21:47;99386.06;;;27.83;54.53
10948;BME280;5526;42.070;24.752;2023-06-05T10:24:18;99391.31;;;27.76;53.47
10948;BME280;5526;42.070;24.752;2023-06-05T10:27:25;99380.91;;;28.16;54.67
10948;BME280;5526;42.070;24.752;2023-06-05T10:33:33;99378.00;;;28.47;51.27
10948;BME280;5526;42.070;24.752;2023-06-05T10:36:10;99374.22;;;28.10;52.88
10948;BME280;5526;42.070;24.752;2023-06-05T10:38:42;99367.47;;;28.23;52.00
10948;BME280;5526;42.070;24.752;2023-06-05T10:41:10;99375.81;;;28.34;52.46
10948;BME280;5526;42.070;24.752;2023-06-05T10:43:46;99363.22;;;28.45;52.33
10948;BME280;5526;42.070;24.752;2023-06-05T10:46:31;99368.44;;;28.12;52.91
10948;BME280;5526;42.070;24.752;2023-06-05T10:49:10;99368.75;;;27.49;53.14
10948;BME280;5526;42.070;24.752;2023-06-05T10:51:39;99360.00;;;27.75;54.57
10948;BME280;5526;42.070;24.752;2023-06-05T10:54:09;99357.06;;;28.02;55.07
10948;BME280;5526;42.070;24.752;2023-06-05T10:56:57;99351.84;;;28.58;53.12
10948;BME280;5526;42.070;24.752;2023-06-05T10:59:26;99362.28;;;28.82;52.04
10948;BME280;5526;42.070;24.752;2023-06-05T11:02:21;99355.16;;;28.26;50.99
10948;BME280;5526;42.070;24.752;2023-06-05T11:05:09;99341.47;;;27.96;51.03
10948;BME280;5526;42.070;24.752;2023-06-05T11:07:37;99344.13;;;28.15;52.05
10948;BME280;5526;42.070;24.752;2023-06-05T11:10:10;99338.28;;;27.71;51.97
10948;BME280;5526;42.070;24.752;2023-06-05T11:12:57;99347.19;;;28.13;51.34
10948;BME280;5526;42.070;24.752;2023-06-05T11:15:39;99347.25;;;28.62;49.33
10948;BME280;5526;42.070;24.752;2023-06-05T11:18:28;99343.53;;;29.22;47.38
10948;BME280;5526;42.070;24.752;2023-06-05T11:20:57;99338.63;;;29.35;48.56
10948;BME280;5526;42.070;24.752;2023-06-05T11:23:25;99332.34;;;29.27;47.71
10948;BME280;5526;42.070;24.752;2023-06-05T11:25:56;99333.19;;;29.64;46.43
10948;BME280;5526;42.070;24.752;2023-06-05T11:28:40;99326.94;;;29.60;45.10
10948;BME280;5526;42.070;24.752;2023-06-05T11:31:07;99335.88;;;29.97;45.00
10948;BME280;5526;42.070;24.752;2023-06-05T11:33:35;99318.88;;;30.00;43.59
10948;BME280;5526;42.070;24.752;2023-06-05T11:36:04;99332.44;;;30.00;44.90
10948;BME280;5526;42.070;24.752;2023-06-05T11:38:32;99326.28;;;30.07;44.03
10948;BME280;5526;42.070;24.752;2023-06-05T11:41:00;99336.41;;;29.73;43.63
10948;BME280;5526;42.070;24.752;2023-06-05T11:43:32;99330.72;;;29.85;43.52
10948;BME280;5526;42.070;24.752;2023-06-05T11:45:59;99326.19;;;29.60;43.05
10948;BME280;5526;42.070;24.752;2023-06-05T11:48:26;99320.22;;;29.18;44.35
10948;BME280;5526;42.070;24.752;2023-06-05T11:50:56;99318.53;;;29.06;45.12
10948;BME280;5526;42.070;24.752;2023-06-05T11:53:25;99321.69;;;29.74;42.21
10948;BME280;5526;42.070;24.752;2023-06-05T11:55:53;99304.50;;;29.63;42.79
10948;BME280;5526;42.070;24.752;2023-06-05T11:58:35;99308.88;;;29.38;43.55
10948;BME280;5526;42.070;24.752;2023-06-05T12:01:07;99305.41;;;29.41;41.09
10948;BME280;5526;42.070;24.752;2023-06-05T12:03:38;99309.59;;;29.68;42.52
10948;BME280;5526;42.070;24.752;2023-06-05T12:06:06;99309.13;;;29.99;40.69
10948;BME280;5526;42.070;24.752;2023-06-05T12:08:34;99302.06;;;29.91;41.18
10948;BME280;5526;42.070;24.752;2023-06-05T12:11:03;99311.66;;;29.78;41.09
10948;BME280;5526;42.070;24.752;2023-06-05T12:13:46;99308.84;;;30.11;40.01
10948;BME280;5526;42.070;24.752;2023-06-05T12:16:14;99319.44;;;29.83;40.64
10948;BME280;5526;42.070;24.752;2023-06-05T12:18:42;99314.88;;;30.31;39.39
10948;BME280;5526;42.070;24.752;2023-06-05T12:21:22;99311.28;;;30.16;39.04
10948;BME280;5526;42.070;24.752;2023-06-05T12:23:51;99302.94;;;30.42;37.78
10948;BME280;5526;42.070;24.752;2023-06-05T12:26:27;99314.66;;;30.53;38.98
10948;BME280;5526;42.070;24.752;2023-06-05T12:29:02;99308.34;;;30.93;38.49
10948;BME280;5526;42.070;24.752;2023-06-05T12:31:34;99307.03;;;30.69;37.25
10948;BME280;5526;42.070;24.752;2023-06-05T12:34:02;99304.97;;;30.09;38.15
10948;BME280;5526;42.070;24.752;2023-06-05T12:36:31;99300.09;;;30.75;37.54
10948;BME280;5526;42.070;24.752;2023-06-05T12:39:03;99292.09;;;30.46;37.97
10948;BME280;5526;42.070;24.752;2023-06-05T12:41:32;99294.91;;;30.56;37.82
10948;BME280;5526;42.070;24.752;2023-06-05T12:43:59;99297.34;;;30.21;38.06
10948;BME280;5526;42.070;24.752;2023-06-05T12:46:27;99300.69;;;30.55;37.74
10948;BME280;5526;42.070;24.752;2023-06-05T12:48:55;99286.88;;;30.74;36.55
10948;BME280;5526;42.070;24.752;2023-06-05T12:51:23;99282.59;;;30.22;38.26
10948;BME280;5526;42.070;24.752;2023-06-05T12:53:52;99280.66;;;30.19;36.92
10948;BME280;5526;42.070;24.752;2023-06-05T12:56:20;99287.66;;;30.20;36.89
10948;BME280;5526;42.070;24.752;2023-06-05T12:58:53;99280.28;;;29.81;37.59
10948;BME280;5526;42.070;24.752;2023-06-05T13:01:21;99270.88;;;29.05;39.06
10948;BME280;5526;42.070;24.752;2023-06-05T13:03:49;99274.56;;;29.20;39.90
10948;BME280;5526;42.070;24.752;2023-06-05T13:06:16;99282.59;;;29.46;39.68